Moran — 4XIM — position and weather

sailwx.info

Track history (hours):
 
Tides and Currents Weather Stations Pressure Air Temp Water Temp Dewpoint Dewpoint Depression Visibility Wind Speed Wind Dir Waves Ship Positions

Moran

Last reported at 2018-Jun-22 23:37 UTC. Time now 2018-Jun-23 04:41 UTC.
Position N 35°57' E 120°34'.

Type: Cargo ship. MMSI: 428011000.

Date/timePositionNaut miles runAvg speedWind from/ knotsBaromVisibWave heightAir tempDewpointWater temp
2018-Jun-22 23:37N 35°57' E 120°34'319.6
2018-Jun-22 23:28N 35°58' E 120°31'916.7
2018-Jun-22 22:55N 36°01' E 120°20'510.5
2018-Jun-22 22:25N 36°01' E 120°14'1 1.3
2018-Jun-22 21:57N 36°01' E 120°14'0 0.0
2018-Jun-22 21:28N 36°01' E 120°14'0 0.0
2018-Jun-22 19:29N 36°01' E 120°14'0 0.0
2018-Jun-22 09:31N 36°01' E 120°14'0 0.1
2018-Jun-22 09:17N 36°01' E 120°14'0 0.0
2018-Jun-22 08:49N 36°01' E 120°14'0 0.0
2018-Jun-22 08:19N 36°01' E 120°14'0 0.0
2018-Jun-22 07:59N 36°01' E 120°14'0 0.0
2018-Jun-22 06:42N 36°01' E 120°14'0 0.0
2018-Jun-22 06:27N 36°01' E 120°14'0 0.0
2018-Jun-22 05:56N 36°01' E 120°14'0 0.0
2018-Jun-22 05:26N 36°01' E 120°14'0 0.4
2018-Jun-22 04:41N 36°01' E 120°14'1 5.0
2018-Jun-22 04:23N 36°02' E 120°15'4 8.6
2018-Jun-22 03:56N 36°02' E 120°20'5 9.6
2018-Jun-22 03:25N 36°01' E 120°26'4 8.8
2018-Jun-22 03:00N 35°60' E 120°30'41111.4
2018-Jun-20 15:05N 34°57' E 128°49'1 0.1
2018-Jun-19 19:29N 34°58' E 128°49'27 7.0
2018-Jun-19 15:40N 34°60' E 129°22'1 8.5
2018-Jun-19 15:30N 35°00' E 129°23'  
Track history (hours):
 
Tides and Currents Weather Stations Pressure Air Temp Water Temp Dewpoint Dewpoint Depression Visibility Wind Speed Wind Dir Waves Ship Positions

Moran

Last reported at 2018-Jun-22 23:37 UTC. Time now 2018-Jun-23 04:41 UTC.
Position N 35°57' E 120°34'.

Type: Cargo ship. MMSI: 428011000.

Date/timePositionNaut miles runAvg speedWind from/ knotsBaromVisibWave heightAir tempDewpointWater temp
2018-Jun-22 23:37N 35°57' E 120°34'319.6
2018-Jun-22 23:28N 35°58' E 120°31'916.7
2018-Jun-22 22:55N 36°01' E 120°20'510.5
2018-Jun-22 22:25N 36°01' E 120°14'1 1.3
2018-Jun-22 21:57N 36°01' E 120°14'0 0.0
2018-Jun-22 21:28N 36°01' E 120°14'0 0.0
2018-Jun-22 19:29N 36°01' E 120°14'0 0.0
2018-Jun-22 09:31N 36°01' E 120°14'0 0.1
2018-Jun-22 09:17N 36°01' E 120°14'0 0.0
2018-Jun-22 08:49N 36°01' E 120°14'0 0.0
2018-Jun-22 08:19N 36°01' E 120°14'0 0.0
2018-Jun-22 07:59N 36°01' E 120°14'0 0.0
2018-Jun-22 06:42N 36°01' E 120°14'0 0.0
2018-Jun-22 06:27N 36°01' E 120°14'0 0.0
2018-Jun-22 05:56N 36°01' E 120°14'0 0.0
2018-Jun-22 05:26N 36°01' E 120°14'0 0.4
2018-Jun-22 04:41N 36°01' E 120°14'1 5.0
2018-Jun-22 04:23N 36°02' E 120°15'4 8.6
2018-Jun-22 03:56N 36°02' E 120°20'5 9.6
2018-Jun-22 03:25N 36°01' E 120°26'4 8.8
2018-Jun-22 03:00N 35°60' E 120°30'41111.4
2018-Jun-20 15:05N 34°57' E 128°49'1 0.1
2018-Jun-19 19:29N 34°58' E 128°49'27 7.0
2018-Jun-19 15:40N 34°60' E 129°22'1 8.5
2018-Jun-19 15:30N 35°00' E 129°23'  

Dump ship's entire track history